createdAt,value
2018-12-31T00:01:10.142Z,3.81
2018-12-31T00:03:37.670Z,3.88
2018-12-31T00:06:05.159Z,3.82
2018-12-31T00:08:32.686Z,3.66
2018-12-31T00:11:00.249Z,3.61
2018-12-31T00:13:27.707Z,3.77
2018-12-31T00:15:55.156Z,3.63
2018-12-31T00:18:22.673Z,3.50
2018-12-31T00:20:50.114Z,3.58
2018-12-31T00:23:17.572Z,3.74
2018-12-31T00:25:45.088Z,3.76
2018-12-31T00:28:12.606Z,3.79
2018-12-31T00:30:40.035Z,3.64
2018-12-31T00:33:07.410Z,3.41
2018-12-31T00:35:34.843Z,3.25
2018-12-31T00:38:02.300Z,3.22
2018-12-31T00:40:29.690Z,3.20
2018-12-31T00:42:59.192Z,3.11
2018-12-31T00:45:26.483Z,3.14
2018-12-31T00:47:53.907Z,3.18
2018-12-31T00:50:21.349Z,3.19
2018-12-31T00:52:48.721Z,3.22
2018-12-31T00:55:16.156Z,3.21
2018-12-31T00:57:43.597Z,3.10
2018-12-31T01:00:11.101Z,3.09
2018-12-31T01:02:38.562Z,2.96
2018-12-31T01:05:06.235Z,3.00
2018-12-31T01:07:33.692Z,3.02
2018-12-31T01:10:01.059Z,3.04
2018-12-31T01:12:28.728Z,3.12
2018-12-31T01:14:56.175Z,3.09
2018-12-31T01:17:23.634Z,3.09
2018-12-31T01:19:51.018Z,3.07
2018-12-31T01:22:18.462Z,2.99
2018-12-31T01:24:45.909Z,3.05
2018-12-31T01:27:13.338Z,3.03
2018-12-31T01:29:40.808Z,3.02
2018-12-31T01:32:08.181Z,2.99
2018-12-31T01:34:35.720Z,3.18
2018-12-31T01:37:03.196Z,3.20
2018-12-31T01:39:30.658Z,3.32
2018-12-31T01:41:58.130Z,3.37
2018-12-31T01:44:25.579Z,3.43
2018-12-31T01:46:53.050Z,3.45
2018-12-31T01:49:20.481Z,3.41
2018-12-31T01:51:47.888Z,3.38
2018-12-31T01:54:15.343Z,3.30
2018-12-31T01:56:42.827Z,3.20
2018-12-31T01:59:10.266Z,2.95
2018-12-31T02:01:37.731Z,2.94
2018-12-31T02:04:05.124Z,2.90
2018-12-31T02:06:32.645Z,3.15
2018-12-31T02:09:00.112Z,3.07
2018-12-31T02:11:27.550Z,3.03
2018-12-31T02:13:55.050Z,2.95
2018-12-31T02:16:22.518Z,2.80
2018-12-31T02:18:49.957Z,2.89
2018-12-31T02:21:17.403Z,2.72
2018-12-31T02:23:44.825Z,2.70
2018-12-31T02:26:13.685Z,2.84
2018-12-31T02:28:41.642Z,2.88
2018-12-31T02:31:09.140Z,3.15
2018-12-31T02:33:36.597Z,3.20
2018-12-31T02:36:04.065Z,3.32
2018-12-31T02:38:31.667Z,3.30
2018-12-31T02:40:59.131Z,3.30
2018-12-31T02:43:26.638Z,3.28
2018-12-31T02:45:54.013Z,3.24
2018-12-31T02:48:21.460Z,3.10
2018-12-31T02:50:48.916Z,3.17
2018-12-31T02:53:16.398Z,3.28
2018-12-31T02:55:43.859Z,3.20
2018-12-31T02:58:11.234Z,3.23
2018-12-31T03:00:38.695Z,3.23
2018-12-31T03:03:06.127Z,3.41
2018-12-31T03:05:33.571Z,3.36
2018-12-31T03:08:00.939Z,3.35
2018-12-31T03:10:28.397Z,3.49
2018-12-31T03:12:55.851Z,3.30
2018-12-31T03:15:23.472Z,3.25
2018-12-31T03:17:50.843Z,3.29
2018-12-31T03:20:18.312Z,3.36
2018-12-31T03:22:45.751Z,3.55
2018-12-31T03:25:13.172Z,3.44
2018-12-31T03:27:40.624Z,3.47
2018-12-31T03:30:08.296Z,3.29
2018-12-31T03:32:35.761Z,3.11
2018-12-31T03:35:03.486Z,2.98
2018-12-31T03:37:30.849Z,2.95
2018-12-31T03:39:58.438Z,3.02
2018-12-31T03:42:25.965Z,2.94
2018-12-31T03:44:53.466Z,2.89
2018-12-31T03:47:20.841Z,2.95
2018-12-31T03:49:48.287Z,3.16
2018-12-31T03:52:15.761Z,3.21
2018-12-31T03:54:43.160Z,3.04
2018-12-31T03:57:10.644Z,3.31
2018-12-31T03:59:38.104Z,3.42
2018-12-31T04:02:05.490Z,3.16
2018-12-31T04:04:33.050Z,3.05
2018-12-31T04:07:00.505Z,3.26
2018-12-31T04:09:27.928Z,3.35
2018-12-31T04:11:55.378Z,3.06
2018-12-31T04:14:22.824Z,2.82
2018-12-31T04:16:50.218Z,2.92
2018-12-31T04:19:17.662Z,2.83
2018-12-31T04:21:45.131Z,2.87
2018-12-31T04:24:12.524Z,2.80
2018-12-31T04:26:39.960Z,2.88
2018-12-31T04:29:07.417Z,3.09
2018-12-31T04:31:47.526Z,2.98
2018-12-31T04:34:15.084Z,2.73
2018-12-31T04:36:42.525Z,2.64
2018-12-31T04:39:09.988Z,2.82
2018-12-31T04:41:37.567Z,2.80
2018-12-31T04:44:05.071Z,2.82
2018-12-31T04:46:32.517Z,2.89
2018-12-31T04:49:00.040Z,2.71
2018-12-31T04:51:27.427Z,2.72
2018-12-31T04:53:54.863Z,2.77
2018-12-31T04:56:22.342Z,2.82
2018-12-31T04:58:49.900Z,2.86
2018-12-31T05:01:17.319Z,2.99
2018-12-31T05:03:44.769Z,2.87
2018-12-31T05:06:12.233Z,3.05
2018-12-31T05:08:39.713Z,2.97
2018-12-31T05:11:07.147Z,2.87
2018-12-31T05:13:34.656Z,3.18
2018-12-31T05:16:02.099Z,3.14
2018-12-31T05:18:29.550Z,3.23
2018-12-31T05:20:56.956Z,3.16
2018-12-31T05:23:24.405Z,3.16
2018-12-31T05:25:51.883Z,3.01
2018-12-31T05:28:19.367Z,2.94
2018-12-31T05:30:46.806Z,2.64
2018-12-31T05:33:14.334Z,2.74
2018-12-31T05:35:41.962Z,2.86
2018-12-31T05:38:09.473Z,2.84
2018-12-31T05:40:36.937Z,2.82
2018-12-31T05:43:23.874Z,2.82
2018-12-31T05:45:51.399Z,2.82
2018-12-31T05:48:18.797Z,2.79
2018-12-31T05:50:46.269Z,2.77
2018-12-31T05:53:13.708Z,2.58
2018-12-31T05:55:41.144Z,2.48
2018-12-31T05:58:08.602Z,2.43
2018-12-31T06:00:36.283Z,2.62
2018-12-31T06:03:03.732Z,2.63
2018-12-31T06:05:31.215Z,2.74
2018-12-31T06:07:58.575Z,2.64
2018-12-31T06:10:26.084Z,2.66
2018-12-31T06:12:53.554Z,2.66
2018-12-31T06:15:20.994Z,2.77
2018-12-31T06:17:48.570Z,2.78
2018-12-31T06:20:16.115Z,2.81
2018-12-31T06:22:43.488Z,2.88
2018-12-31T06:25:11.540Z,3.18
2018-12-31T06:27:38.996Z,3.25
2018-12-31T06:30:06.499Z,3.01
2018-12-31T06:32:33.926Z,2.84
2018-12-31T06:35:01.441Z,2.86
2018-12-31T06:37:29.047Z,3.00
2018-12-31T06:39:56.457Z,2.91
2018-12-31T06:42:23.914Z,2.70
2018-12-31T06:44:51.427Z,2.57
2018-12-31T06:47:18.797Z,2.60
2018-12-31T06:49:46.294Z,2.72
2018-12-31T06:52:13.736Z,3.10
2018-12-31T06:54:41.133Z,3.06
2018-12-31T06:57:08.589Z,3.03
2018-12-31T06:59:36.060Z,2.92
2018-12-31T07:02:03.649Z,2.93
2018-12-31T07:04:31.475Z,2.85
2018-12-31T07:06:58.929Z,2.84
2018-12-31T07:09:26.439Z,2.88
2018-12-31T07:11:53.915Z,2.82
2018-12-31T07:14:21.511Z,2.77
2018-12-31T07:16:48.966Z,2.91
2018-12-31T07:19:16.393Z,2.93
2018-12-31T07:21:43.814Z,3.14
2018-12-31T07:24:11.279Z,3.27
2018-12-31T07:26:38.772Z,3.16
2018-12-31T07:29:06.351Z,3.00
2018-12-31T07:31:33.747Z,2.85
2018-12-31T07:34:01.202Z,2.81
2018-12-31T07:36:28.696Z,2.97
2018-12-31T07:38:56.264Z,3.01
2018-12-31T07:41:23.830Z,2.97
2018-12-31T07:43:51.317Z,3.02
2018-12-31T07:46:18.766Z,3.10
2018-12-31T07:48:46.244Z,3.12
2018-12-31T07:51:13.721Z,3.68
2018-12-31T07:53:41.304Z,3.90
2018-12-31T07:56:08.711Z,3.81
2018-12-31T07:58:36.160Z,3.68
2018-12-31T08:01:04.128Z,3.88
2018-12-31T08:03:31.541Z,3.92
2018-12-31T08:05:59.203Z,3.94
2018-12-31T08:08:26.749Z,4.15
2018-12-31T08:10:54.612Z,4.23
2018-12-31T08:13:23.539Z,4.12
2018-12-31T08:15:51.144Z,4.17
2018-12-31T08:18:18.632Z,4.63
2018-12-31T08:20:46.349Z,4.43
2018-12-31T08:23:13.861Z,4.32
2018-12-31T08:25:41.312Z,4.03
2018-12-31T08:28:08.836Z,3.98
2018-12-31T08:30:36.369Z,4.02
2018-12-31T08:33:03.887Z,4.12
2018-12-31T08:35:31.393Z,4.07
2018-12-31T08:37:58.758Z,3.87
2018-12-31T08:40:26.342Z,3.92
2018-12-31T08:42:53.866Z,3.79
2018-12-31T08:45:21.348Z,3.98
2018-12-31T08:47:48.872Z,3.95
2018-12-31T08:50:16.349Z,4.11
2018-12-31T08:52:43.923Z,3.98
2018-12-31T08:55:11.397Z,3.87
2018-12-31T08:57:38.864Z,4.16
2018-12-31T09:00:07.386Z,4.38
2018-12-31T09:02:34.875Z,4.13
2018-12-31T09:05:03.022Z,3.98
2018-12-31T09:07:30.510Z,3.84
2018-12-31T09:09:58.101Z,3.66
2018-12-31T09:12:26.025Z,3.81
2018-12-31T09:14:53.632Z,3.81
2018-12-31T09:17:21.156Z,4.03
2018-12-31T09:19:48.560Z,3.97
2018-12-31T09:22:16.066Z,4.06
2018-12-31T09:24:44.674Z,3.82
2018-12-31T09:27:13.078Z,3.83
2018-12-31T09:29:40.517Z,3.91
2018-12-31T09:32:07.948Z,3.93
2018-12-31T09:34:35.431Z,4.00
2018-12-31T09:37:11.680Z,4.10
2018-12-31T09:39:39.128Z,4.17
2018-12-31T09:42:06.771Z,4.17
2018-12-31T09:44:34.248Z,4.19
2018-12-31T09:47:01.700Z,4.05
2018-12-31T09:49:29.080Z,3.99
2018-12-31T09:51:56.592Z,4.15
2018-12-31T09:54:24.065Z,4.12
2018-12-31T09:56:51.492Z,4.19
2018-12-31T09:59:18.970Z,4.31
2018-12-31T10:01:46.832Z,4.49
2018-12-31T10:04:14.314Z,4.57
2018-12-31T10:06:41.901Z,4.53
2018-12-31T10:09:09.359Z,4.49
2018-12-31T10:11:36.903Z,4.29
2018-12-31T10:14:04.419Z,4.21
2018-12-31T10:16:31.827Z,4.14
2018-12-31T10:19:00.412Z,4.43
2018-12-31T10:21:27.833Z,4.37
2018-12-31T10:23:55.254Z,4.58
2018-12-31T10:26:22.714Z,4.55
2018-12-31T10:28:50.283Z,4.60
2018-12-31T10:31:17.731Z,4.57
2018-12-31T10:33:45.189Z,4.97
2018-12-31T10:36:12.648Z,4.75
2018-12-31T10:38:40.062Z,4.50
2018-12-31T10:41:07.525Z,4.49
2018-12-31T10:43:35.050Z,4.46
2018-12-31T10:46:02.473Z,4.49
2018-12-31T10:48:29.953Z,4.54
2018-12-31T10:50:57.406Z,4.65
2018-12-31T10:53:24.875Z,4.61
2018-12-31T10:55:52.458Z,4.50
2018-12-31T10:58:19.943Z,4.40
2018-12-31T11:00:47.385Z,4.44
2018-12-31T11:03:14.852Z,4.51
2018-12-31T11:05:42.273Z,4.40
2018-12-31T11:08:10.609Z,4.45
2018-12-31T11:10:39.031Z,4.41
2018-12-31T11:13:06.512Z,4.38
2018-12-31T11:15:33.956Z,4.49
2018-12-31T11:18:01.413Z,4.39
2018-12-31T11:20:28.852Z,4.43
2018-12-31T11:22:56.468Z,4.40
2018-12-31T11:25:24.011Z,4.67
2018-12-31T11:27:51.487Z,4.62
2018-12-31T11:30:18.943Z,4.67
2018-12-31T11:32:46.391Z,4.76
2018-12-31T11:35:13.802Z,4.69
2018-12-31T11:37:41.244Z,4.56
2018-12-31T11:40:08.887Z,4.54
2018-12-31T11:45:23.411Z,4.90
2018-12-31T11:47:50.873Z,4.96
2018-12-31T11:50:18.540Z,5.28
2018-12-31T11:52:46.184Z,5.26
2018-12-31T11:55:13.797Z,5.37
2018-12-31T11:57:41.324Z,5.36
2018-12-31T12:03:02.352Z,5.31
2018-12-31T12:05:30.275Z,5.10
2018-12-31T12:07:58.125Z,5.09
2018-12-31T12:10:26.598Z,4.98
2018-12-31T12:12:58.177Z,4.89
2018-12-31T12:15:26.727Z,4.83
2018-12-31T12:17:54.596Z,4.87
2018-12-31T12:20:22.970Z,4.90
2018-12-31T12:22:52.964Z,5.03
2018-12-31T12:25:23.271Z,4.99
2018-12-31T12:27:51.361Z,4.83
2018-12-31T12:30:19.416Z,4.99
2018-12-31T12:32:50.295Z,4.89
2018-12-31T12:35:18.833Z,4.90
2018-12-31T12:37:48.645Z,4.87
2018-12-31T12:40:16.961Z,4.94
2018-12-31T12:42:45.095Z,4.94
2018-12-31T12:45:17.660Z,4.82
2018-12-31T12:47:46.818Z,5.01
2018-12-31T12:50:14.986Z,5.03
2018-12-31T12:52:44.473Z,4.94
2018-12-31T12:55:14.409Z,4.80
2018-12-31T12:57:44.067Z,4.91
2018-12-31T13:00:25.084Z,4.90
2018-12-31T13:03:02.687Z,4.89
2018-12-31T13:05:35.900Z,1.97
2018-12-31T13:08:03.840Z,4.79
2018-12-31T13:10:35.445Z,5.09
2018-12-31T13:13:07.951Z,5.03
2018-12-31T13:15:35.932Z,5.11
2018-12-31T13:18:03.386Z,5.03
2018-12-31T13:20:31.122Z,5.01
2018-12-31T13:22:58.583Z,5.04
2018-12-31T13:25:25.986Z,4.99
2018-12-31T13:27:55.399Z,4.93
2018-12-31T13:30:22.857Z,5.09
2018-12-31T13:32:50.247Z,5.14
2018-12-31T13:35:17.699Z,5.19
2018-12-31T13:37:48.026Z,5.01
2018-12-31T13:40:15.735Z,4.86
2018-12-31T13:42:43.220Z,4.75
2018-12-31T13:45:10.666Z,4.83
2018-12-31T13:47:38.129Z,4.95
2018-12-31T13:50:05.807Z,5.00
2018-12-31T13:52:33.592Z,4.89
2018-12-31T13:55:01.520Z,4.86
2018-12-31T13:57:29.371Z,4.84
2018-12-31T13:59:57.506Z,4.82
2018-12-31T14:02:25.029Z,4.81
2018-12-31T14:04:52.482Z,4.69
2018-12-31T14:07:20.014Z,4.81
2018-12-31T14:09:47.549Z,4.86
2018-12-31T14:12:15.046Z,4.87
2018-12-31T14:14:42.573Z,4.86
2018-12-31T14:17:10.325Z,4.71
2018-12-31T14:19:37.701Z,4.85
2018-12-31T14:22:05.265Z,4.75
2018-12-31T14:24:32.891Z,4.81
2018-12-31T14:27:00.912Z,4.91
2018-12-31T14:29:30.112Z,4.81
2018-12-31T14:31:57.840Z,4.77
2018-12-31T14:34:25.991Z,4.67
2018-12-31T14:36:55.865Z,4.65
2018-12-31T14:39:23.935Z,4.58
2018-12-31T14:41:51.720Z,4.49
2018-12-31T14:44:19.174Z,4.42
2018-12-31T14:46:46.652Z,4.54
2018-12-31T14:49:14.160Z,4.51
2018-12-31T14:51:41.653Z,4.52
2018-12-31T14:54:09.162Z,4.41
2018-12-31T14:56:36.542Z,4.37
2018-12-31T14:59:04.002Z,4.36
2018-12-31T15:01:33.406Z,4.49
2018-12-31T15:04:00.813Z,4.53
2018-12-31T15:06:28.317Z,4.45
2018-12-31T15:08:55.866Z,4.49
2018-12-31T15:11:23.310Z,4.42
2018-12-31T15:13:50.792Z,4.32
2018-12-31T15:16:18.258Z,4.25
2018-12-31T15:18:45.864Z,4.32
2018-12-31T15:21:13.330Z,4.32
2018-12-31T15:23:40.982Z,4.31
2018-12-31T15:26:08.622Z,4.31
2018-12-31T15:28:38.064Z,4.34
2018-12-31T15:31:05.437Z,4.30
2018-12-31T15:33:33.058Z,4.27
2018-12-31T15:36:00.635Z,4.32
2018-12-31T15:38:28.135Z,4.40
2018-12-31T15:40:55.518Z,4.35
2018-12-31T15:43:23.090Z,4.35
2018-12-31T15:45:50.623Z,4.37
2018-12-31T15:48:18.185Z,4.31
2018-12-31T15:50:45.583Z,4.24
2018-12-31T15:53:13.184Z,4.28
2018-12-31T15:55:40.630Z,4.31
2018-12-31T15:58:07.991Z,4.31
2018-12-31T16:00:35.469Z,4.37
2018-12-31T16:03:03.032Z,4.19
2018-12-31T16:05:30.572Z,4.12
2018-12-31T16:07:57.966Z,4.37
2018-12-31T16:10:27.324Z,4.42
2018-12-31T16:12:54.783Z,4.40
2018-12-31T16:15:22.254Z,4.46
2018-12-31T16:17:49.669Z,4.42
2018-12-31T16:20:17.139Z,4.54
2018-12-31T16:22:44.651Z,4.49
2018-12-31T16:25:12.100Z,4.54
2018-12-31T16:27:39.562Z,4.56
2018-12-31T16:30:07.733Z,4.53
2018-12-31T16:32:35.130Z,4.77
2018-12-31T16:35:02.598Z,4.77
2018-12-31T16:37:30.170Z,4.63
2018-12-31T16:39:57.604Z,4.57
2018-12-31T16:42:25.045Z,4.47
2018-12-31T16:44:52.654Z,4.32
2018-12-31T16:47:20.128Z,4.22
2018-12-31T16:49:47.642Z,4.24
2018-12-31T16:52:17.040Z,4.22
2018-12-31T16:54:44.602Z,4.19
2018-12-31T16:57:12.055Z,4.16
2018-12-31T16:59:39.510Z,3.96
2018-12-31T17:02:08.163Z,3.92
2018-12-31T17:04:36.987Z,4.22
2018-12-31T17:07:04.514Z,4.31
2018-12-31T17:09:32.019Z,4.29
2018-12-31T17:11:59.533Z,4.36
2018-12-31T17:14:26.914Z,4.44
2018-12-31T17:16:54.405Z,4.28
2018-12-31T17:19:21.876Z,4.28
2018-12-31T17:21:49.494Z,4.47
2018-12-31T17:24:17.111Z,4.37
2018-12-31T17:26:44.599Z,4.25
2018-12-31T17:29:12.089Z,4.49
2018-12-31T17:31:39.627Z,4.57
2018-12-31T17:34:08.971Z,4.55
2018-12-31T17:36:36.379Z,4.46
2018-12-31T17:39:45.351Z,4.68
2018-12-31T17:42:12.908Z,4.81
2018-12-31T17:44:40.365Z,4.63
2018-12-31T17:47:08.005Z,4.59
2018-12-31T17:49:35.630Z,4.57
2018-12-31T17:52:03.182Z,4.62
2018-12-31T17:54:32.576Z,4.54
2018-12-31T17:57:00.202Z,4.46
2018-12-31T17:59:27.723Z,4.34
2018-12-31T18:01:55.465Z,4.32
2018-12-31T18:04:22.872Z,4.42
2018-12-31T18:06:50.375Z,4.37
2018-12-31T18:09:17.833Z,4.26
2018-12-31T18:11:45.408Z,4.23
2018-12-31T18:14:12.816Z,4.36
2018-12-31T18:16:40.337Z,4.29
2018-12-31T18:19:07.846Z,4.27
2018-12-31T18:21:37.232Z,4.18
2018-12-31T18:24:04.634Z,4.10
2018-12-31T18:26:32.102Z,4.04
2018-12-31T18:28:59.568Z,3.99
2018-12-31T18:31:26.991Z,4.01
2018-12-31T18:33:54.466Z,4.17
2018-12-31T18:36:21.920Z,4.21
2018-12-31T18:38:49.400Z,4.13
2018-12-31T18:41:16.822Z,4.22
2018-12-31T18:43:44.259Z,4.26
2018-12-31T18:46:11.753Z,4.17
2018-12-31T18:48:39.574Z,4.07
2018-12-31T18:51:06.970Z,4.05
2018-12-31T18:53:34.414Z,4.00
2018-12-31T18:56:01.878Z,4.25
2018-12-31T18:58:29.326Z,4.27
2018-12-31T19:00:56.813Z,4.40
2018-12-31T19:03:24.265Z,4.40
2018-12-31T19:05:51.664Z,4.23
2018-12-31T19:08:19.123Z,4.09
2018-12-31T19:10:46.780Z,3.97
2018-12-31T19:13:14.249Z,4.15
2018-12-31T19:15:41.750Z,3.95
2018-12-31T19:18:11.103Z,4.11
2018-12-31T19:20:38.584Z,4.00
2018-12-31T19:23:06.008Z,3.93
2018-12-31T19:25:33.474Z,4.17
2018-12-31T19:28:00.910Z,4.09
2018-12-31T19:30:28.484Z,4.21
2018-12-31T19:32:57.794Z,4.11
2018-12-31T19:35:25.257Z,4.16
2018-12-31T19:37:52.970Z,4.22
2018-12-31T19:40:20.316Z,3.97
2018-12-31T19:42:47.895Z,4.06
2018-12-31T19:45:15.369Z,3.96
2018-12-31T19:47:42.802Z,3.98
2018-12-31T19:50:10.328Z,4.05
2018-12-31T19:52:38.025Z,4.22
2018-12-31T19:55:07.026Z,4.18
2018-12-31T19:57:35.073Z,4.02
2018-12-31T20:00:03.402Z,4.07
2018-12-31T20:02:30.869Z,3.85
2018-12-31T20:04:58.715Z,3.83
2018-12-31T20:07:26.154Z,3.81
2018-12-31T20:09:53.613Z,3.91
2018-12-31T20:12:21.016Z,4.05
2018-12-31T20:14:48.816Z,3.96
2018-12-31T20:17:16.341Z,3.84
2018-12-31T20:19:44.124Z,3.72
2018-12-31T20:22:11.632Z,3.70
2018-12-31T20:24:39.093Z,3.68
2018-12-31T20:27:06.548Z,3.87
2018-12-31T20:29:34.201Z,3.88
2018-12-31T20:32:01.802Z,3.86
2018-12-31T20:34:29.249Z,3.72
2018-12-31T20:36:56.871Z,3.67
2018-12-31T20:39:24.245Z,3.61
2018-12-31T20:41:51.767Z,3.61
2018-12-31T20:44:21.132Z,3.73
2018-12-31T20:46:48.592Z,3.87
2018-12-31T20:49:15.979Z,3.96
2018-12-31T20:51:43.518Z,3.91
2018-12-31T20:54:11.022Z,3.83
2018-12-31T20:56:38.491Z,3.92
2018-12-31T20:59:08.612Z,4.01
2018-12-31T21:01:36.485Z,4.14
2018-12-31T21:04:04.064Z,4.12
2018-12-31T21:06:31.675Z,4.04
2018-12-31T21:08:59.341Z,4.08
2018-12-31T21:11:27.465Z,3.99
2018-12-31T21:13:55.197Z,4.15
2018-12-31T21:16:22.807Z,3.83
2018-12-31T21:18:50.340Z,3.70
2018-12-31T21:21:18.102Z,3.71
2018-12-31T21:23:45.690Z,3.75
2018-12-31T21:26:13.336Z,3.95
2018-12-31T21:28:40.996Z,3.88
2018-12-31T21:31:08.840Z,3.64
2018-12-31T21:33:39.979Z,3.65
2018-12-31T21:36:08.060Z,3.73
2018-12-31T21:38:35.729Z,3.59
2018-12-31T21:41:05.275Z,3.67
2018-12-31T21:43:33.268Z,3.58
2018-12-31T21:46:00.932Z,3.44
2018-12-31T21:48:28.770Z,3.31
2018-12-31T21:50:56.387Z,3.13
2018-12-31T21:53:24.293Z,3.07
2018-12-31T21:55:52.307Z,3.06
2018-12-31T21:58:23.887Z,3.08
2018-12-31T22:00:51.544Z,3.15
2018-12-31T22:03:19.130Z,3.18
2018-12-31T22:05:46.821Z,3.24
2018-12-31T22:08:14.485Z,3.39
2018-12-31T22:10:44.513Z,3.48
2018-12-31T22:13:12.301Z,3.23
2018-12-31T22:15:39.923Z,2.98
2018-12-31T22:18:07.667Z,2.80
2018-12-31T22:20:35.613Z,2.74
2018-12-31T22:23:03.348Z,2.71
2018-12-31T22:25:30.948Z,2.53
2018-12-31T22:27:58.531Z,2.78
2018-12-31T22:30:26.120Z,2.83
2018-12-31T22:32:54.032Z,2.68
2018-12-31T22:35:23.152Z,2.74
2018-12-31T22:37:52.624Z,2.59
2018-12-31T22:40:20.335Z,2.59
2018-12-31T22:42:51.256Z,2.54
2018-12-31T22:45:22.358Z,2.78
2018-12-31T22:47:51.421Z,2.58
2018-12-31T22:50:40.845Z,2.69
2018-12-31T22:53:08.982Z,2.62
2018-12-31T22:55:36.596Z,2.38
2018-12-31T22:58:04.383Z,2.23
2018-12-31T23:00:32.549Z,2.25
2018-12-31T23:03:00.131Z,2.16
2018-12-31T23:05:29.211Z,2.06
2018-12-31T23:07:59.274Z,2.08
2018-12-31T23:10:26.806Z,2.05
2018-12-31T23:12:54.469Z,2.29
2018-12-31T23:15:23.819Z,2.13
2018-12-31T23:17:52.529Z,2.08
2018-12-31T23:20:21.922Z,1.83
2018-12-31T23:22:51.097Z,1.88
2018-12-31T23:25:59.658Z,1.90
2018-12-31T23:31:07.610Z,2.17
2018-12-31T23:33:35.235Z,2.10
2018-12-31T23:36:02.842Z,1.90
2018-12-31T23:38:31.364Z,1.90
2018-12-31T23:40:59.015Z,1.90
2018-12-31T23:43:27.408Z,2.08
2018-12-31T23:45:56.276Z,2.04
2018-12-31T23:48:23.760Z,2.03
2018-12-31T23:50:51.425Z,1.88
2018-12-31T23:53:19.144Z,1.87
2018-12-31T23:55:46.973Z,1.85
2018-12-31T23:58:14.942Z,1.81
